Aspen Hill, MD

11:04 PM EDT on October 22, 2014 (GMT -0400)
Parker Ave, Wheaton, MD | Change Station
CLOSE
Current Station
Personal Weather Station
Location: Wheaton, Silver Spring, MD
Elevation: 390 ft
Nearby Weather Stations

Elev 390 ft 39.05 °N, 77.06 °W | Updated 8 seconds ago

Overcast
Overcast
52.7 °F
Feels Like 52.7 °F
N
5.6
Wind Variable Wind from West
Gusts 9.2 mph

Today
High -- | Low -- °F
--% Chance of Precip.
Yesterday
High -- | Low -- °F
Precip. -- in
7:24 AM 6:19 PM
Waning Crescent, 1% visible
Pressure 29.98 in
Visibility 10.0 miles
Clouds Overcast 3400 ft
Dew Point 44 °F
Humidity 73%
Rainfall 0.00 in
Snow Depth Not available.
UV 0 out of 12
Pollen .50 out of 12
Air Quality Not available.
Flu Activity Sporadic
METAR KGAI 230255Z 31008KT 10SM OVC034 11/06 A2998 RMK AO1 54000

More Conditions Fewer Conditions

Pressure 29.98 in
Visibility 10.0 miles
Clouds Overcast 3400 ft
Dew Point 44 °F
Humidity 73%
Rainfall 0.00 in
Snow Depth Not available.
UV 0 out of 12
Pollen .50 out of 12
Air Quality Not available.
Flu Activity Sporadic
METAR KGAI 230255Z 31008KT 10SM OVC034 11/06 A2998 RMK AO1 54000

More Conditions Fewer Conditions

10-Day Weather Forecast

Almanac

Astronomy

Oct. 22, 2014 Rise Set
Actual Time 7:24 AM EDT 6:19 PM EDT
Civil Twilight 6:57 AM EDT 6:46 PM EDT
Nautical Twilight 6:26 AM EDT 7:18 PM EDT
Astronomical Twilight 5:55 AM EDT 7:49 PM EDT
Moon 6:04 AM EDT (10/22) 5:44 PM EDT (10/22)
Length of Visible Light 11h 49m
Length of Day
10h 54m
Tomorrow will be 2m 23s shorter.
Waning Crescent, 1% of the Moon is Illuminated
Today
Waning Crescent
Oct 23
New
Oct 30
First Quarter
Nov 6
Full
Nov 14
Last Quarter

Today's Extremes

State Highs State Lows

Community

WunderPhotos

Upload Photos

1,764,121 photos uploaded!

Nearby

Snow Depth

Station Depth Elevation
No new snow has been reported.

Earthquake Activity

City Distance Mag. Time & Date
No recent earthquake activity has been reported nearby.
Minimum magnitude displayed is 2.5.

Coastal Water Temperatures

Place Temperature
Washington, DC 62.1 °F
Baltimore, MD 64.9 °F
Solomons Island, MD 64.0 °F

Nearby Weather Stations